sensor_id;sensor_type;location;lat;lon;timestamp;pressure;altitude;pressure_sealevel;temperature;humidity
9740;BME280;4909;42.680;26.324;2022-08-19T00:01:18;98129.84;;;27.46;63.01
9740;BME280;4909;42.680;26.324;2022-08-19T00:03:45;98121.81;;;27.52;62.66
9740;BME280;4909;42.680;26.324;2022-08-19T00:06:12;98123.19;;;27.48;62.81
9740;BME280;4909;42.680;26.324;2022-08-19T00:08:40;98129.53;;;27.49;62.89
9740;BME280;4909;42.680;26.324;2022-08-19T00:11:08;98134.72;;;27.36;63.05
9740;BME280;4909;42.680;26.324;2022-08-19T00:13:36;98130.03;;;27.30;63.03
9740;BME280;4909;42.680;26.324;2022-08-19T00:16:04;98129.94;;;27.23;63.40
9740;BME280;4909;42.680;26.324;2022-08-19T00:18:32;98125.31;;;27.09;64.18
9740;BME280;4909;42.680;26.324;2022-08-19T00:20:59;98126.16;;;27.09;63.96
9740;BME280;4909;42.680;26.324;2022-08-19T00:23:26;98126.25;;;27.01;64.64
9740;BME280;4909;42.680;26.324;2022-08-19T00:25:53;98105.81;;;26.97;64.29
9740;BME280;4909;42.680;26.324;2022-08-19T00:28:21;98128.16;;;27.15;63.73
9740;BME280;4909;42.680;26.324;2022-08-19T00:30:48;98129.94;;;27.23;63.25
9740;BME280;4909;42.680;26.324;2022-08-19T00:33:17;98129.53;;;27.26;63.10
9740;BME280;4909;42.680;26.324;2022-08-19T00:35:44;98128.69;;;27.25;63.03
9740;BME280;4909;42.680;26.324;2022-08-19T00:38:10;98128.97;;;27.16;63.63
9740;BME280;4909;42.680;26.324;2022-08-19T00:40:37;98122.03;;;27.13;63.74
9740;BME280;4909;42.680;26.324;2022-08-19T00:43:08;98121.34;;;27.11;64.17
9740;BME280;4909;42.680;26.324;2022-08-19T00:45:37;98125.41;;;27.15;63.83
9740;BME280;4909;42.680;26.324;2022-08-19T00:48:07;98111.94;;;26.99;64.09
9740;BME280;4909;42.680;26.324;2022-08-19T00:50:34;98108.56;;;27.12;63.38
9740;BME280;4909;42.680;26.324;2022-08-19T00:53:02;98114.69;;;27.14;63.24
9740;BME280;4909;42.680;26.324;2022-08-19T00:55:30;98124.00;;;27.19;62.90
9740;BME280;4909;42.680;26.324;2022-08-19T00:58:02;98120.63;;;27.17;62.92
9740;BME280;4909;42.680;26.324;2022-08-19T01:00:31;98120.25;;;27.20;62.76
9740;BME280;4909;42.680;26.324;2022-08-19T01:03:03;98119.41;;;27.20;63.19
9740;BME280;4909;42.680;26.324;2022-08-19T01:05:31;98118.28;;;27.14;63.23
9740;BME280;4909;42.680;26.324;2022-08-19T01:07:59;98112.78;;;27.00;63.76
9740;BME280;4909;42.680;26.324;2022-08-19T01:10:30;98111.56;;;27.02;63.53
9740;BME280;4909;42.680;26.324;2022-08-19T01:12:58;98119.09;;;27.00;63.83
9740;BME280;4909;42.680;26.324;2022-08-19T01:15:30;98096.88;;;26.89;64.26
9740;BME280;4909;42.680;26.324;2022-08-19T01:18:00;98113.94;;;27.05;63.90
9740;BME280;4909;42.680;26.324;2022-08-19T01:20:29;98106.06;;;26.88;64.25
9740;BME280;4909;42.680;26.324;2022-08-19T01:22:58;98113.66;;;27.00;63.90
9740;BME280;4909;42.680;26.324;2022-08-19T01:25:33;98110.50;;;26.89;64.14
9740;BME280;4909;42.680;26.324;2022-08-19T01:28:01;98096.09;;;26.80;64.20
9740;BME280;4909;42.680;26.324;2022-08-19T01:30:32;98121.22;;;26.90;64.05
9740;BME280;4909;42.680;26.324;2022-08-19T01:32:59;98120.28;;;26.75;65.08
9740;BME280;4909;42.680;26.324;2022-08-19T01:35:29;98120.13;;;26.76;64.77
9740;BME280;4909;42.680;26.324;2022-08-19T01:38:00;98121.78;;;26.77;65.23
9740;BME280;4909;42.680;26.324;2022-08-19T01:40:30;98124.44;;;26.63;65.11
9740;BME280;4909;42.680;26.324;2022-08-19T01:42:57;98119.09;;;26.55;65.12
9740;BME280;4909;42.680;26.324;2022-08-19T01:45:26;98119.53;;;26.66;65.28
9740;BME280;4909;42.680;26.324;2022-08-19T01:47:54;98120.75;;;26.87;64.56
9740;BME280;4909;42.680;26.324;2022-08-19T01:50:22;98105.75;;;26.82;64.69
9740;BME280;4909;42.680;26.324;2022-08-19T01:52:48;98111.88;;;26.85;65.26
9740;BME280;4909;42.680;26.324;2022-08-19T01:55:20;98116.13;;;26.87;65.18
9740;BME280;4909;42.680;26.324;2022-08-19T01:57:51;98104.63;;;26.77;65.52
9740;BME280;4909;42.680;26.324;2022-08-19T02:00:21;98108.63;;;26.89;65.02
9740;BME280;4909;42.680;26.324;2022-08-19T02:02:48;98115.22;;;26.72;65.19
9740;BME280;4909;42.680;26.324;2022-08-19T02:05:15;98104.44;;;26.78;65.33
9740;BME280;4909;42.680;26.324;2022-08-19T02:07:43;98115.44;;;26.85;64.90
9740;BME280;4909;42.680;26.324;2022-08-19T02:10:13;98110.00;;;26.85;65.47
9740;BME280;4909;42.680;26.324;2022-08-19T02:12:42;98110.56;;;26.80;65.00
9740;BME280;4909;42.680;26.324;2022-08-19T02:15:09;98100.50;;;26.58;65.73
9740;BME280;4909;42.680;26.324;2022-08-19T02:17:36;98101.19;;;26.60;65.69
9740;BME280;4909;42.680;26.324;2022-08-19T02:20:04;98112.19;;;26.44;66.13
9740;BME280;4909;42.680;26.324;2022-08-19T02:22:32;98111.00;;;26.47;66.44
9740;BME280;4909;42.680;26.324;2022-08-19T02:24:59;98107.94;;;26.64;65.02
9740;BME280;4909;42.680;26.324;2022-08-19T02:27:26;98103.66;;;26.70;64.59
9740;BME280;4909;42.680;26.324;2022-08-19T02:29:54;98119.38;;;26.82;64.25
9740;BME280;4909;42.680;26.324;2022-08-19T02:32:21;98121.56;;;26.87;64.01
9740;BME280;4909;42.680;26.324;2022-08-19T02:34:48;98121.06;;;26.83;64.00
9740;BME280;4909;42.680;26.324;2022-08-19T02:37:15;98120.53;;;26.65;64.60
9740;BME280;4909;42.680;26.324;2022-08-19T02:39:55;98115.78;;;26.67;64.67
9740;BME280;4909;42.680;26.324;2022-08-19T02:42:22;98118.28;;;26.69;63.95
9740;BME280;4909;42.680;26.324;2022-08-19T02:44:50;98118.66;;;26.66;64.43
9740;BME280;4909;42.680;26.324;2022-08-19T02:47:19;98121.69;;;26.71;63.91
9740;BME280;4909;42.680;26.324;2022-08-19T02:49:46;98112.00;;;26.68;63.66
9740;BME280;4909;42.680;26.324;2022-08-19T02:52:14;98127.00;;;26.64;64.21
9740;BME280;4909;42.680;26.324;2022-08-19T02:54:41;98131.06;;;26.68;63.99
9740;BME280;4909;42.680;26.324;2022-08-19T02:57:07;98125.13;;;26.65;64.46
9740;BME280;4909;42.680;26.324;2022-08-19T02:59:34;98136.41;;;26.62;64.56
9740;BME280;4909;42.680;26.324;2022-08-19T03:02:01;98117.50;;;26.37;64.61
9740;BME280;4909;42.680;26.324;2022-08-19T03:04:30;98138.75;;;26.65;63.63
9740;BME280;4909;42.680;26.324;2022-08-19T03:06:56;98152.50;;;26.71;63.24
9740;BME280;4909;42.680;26.324;2022-08-19T03:09:23;98146.84;;;26.73;63.22
9740;BME280;4909;42.680;26.324;2022-08-19T03:11:50;98153.38;;;26.64;63.49
9740;BME280;4909;42.680;26.324;2022-08-19T03:14:17;98151.84;;;26.38;62.47
9740;BME280;4909;42.680;26.324;2022-08-19T03:16:46;98158.56;;;26.28;63.43
9740;BME280;4909;42.680;26.324;2022-08-19T03:19:16;98163.47;;;26.24;63.47
9740;BME280;4909;42.680;26.324;2022-08-19T03:21:45;98162.13;;;26.28;63.40
9740;BME280;4909;42.680;26.324;2022-08-19T03:24:12;98152.44;;;26.26;63.39
9740;BME280;4909;42.680;26.324;2022-08-19T03:26:41;98152.25;;;26.19;63.56
9740;BME280;4909;42.680;26.324;2022-08-19T03:29:09;98147.31;;;25.92;64.14
9740;BME280;4909;42.680;26.324;2022-08-19T03:31:37;98157.69;;;25.88;65.11
9740;BME280;4909;42.680;26.324;2022-08-19T03:34:05;98165.47;;;26.00;65.02
9740;BME280;4909;42.680;26.324;2022-08-19T03:36:32;98158.75;;;25.79;63.79
9740;BME280;4909;42.680;26.324;2022-08-19T03:39:01;98161.91;;;25.91;65.30
9740;BME280;4909;42.680;26.324;2022-08-19T03:41:30;98172.41;;;26.02;64.86
9740;BME280;4909;42.680;26.324;2022-08-19T03:43:58;98167.06;;;26.25;64.01
9740;BME280;4909;42.680;26.324;2022-08-19T03:46:26;98150.59;;;26.18;63.78
9740;BME280;4909;42.680;26.324;2022-08-19T03:48:56;98173.81;;;26.37;63.36
9740;BME280;4909;42.680;26.324;2022-08-19T03:51:25;98171.72;;;26.39;63.73
9740;BME280;4909;42.680;26.324;2022-08-19T03:53:54;98174.34;;;26.32;63.97
9740;BME280;4909;42.680;26.324;2022-08-19T03:56:22;98148.09;;;26.09;64.34
9740;BME280;4909;42.680;26.324;2022-08-19T03:58:51;98181.50;;;26.33;63.76
9740;BME280;4909;42.680;26.324;2022-08-19T04:01:21;98177.59;;;26.28;64.42
9740;BME280;4909;42.680;26.324;2022-08-19T04:03:48;98172.47;;;25.94;65.07
9740;BME280;4909;42.680;26.324;2022-08-19T04:06:18;98189.44;;;25.96;65.98
9740;BME280;4909;42.680;26.324;2022-08-19T04:08:48;98187.19;;;26.08;65.43
9740;BME280;4909;42.680;26.324;2022-08-19T04:11:18;98183.03;;;26.28;65.42
9740;BME280;4909;42.680;26.324;2022-08-19T04:13:47;98185.25;;;26.24;64.79
9740;BME280;4909;42.680;26.324;2022-08-19T04:16:14;98195.66;;;26.13;65.53
9740;BME280;4909;42.680;26.324;2022-08-19T04:18:41;98188.16;;;26.23;65.52
9740;BME280;4909;42.680;26.324;2022-08-19T04:21:08;98188.59;;;26.34;65.38
9740;BME280;4909;42.680;26.324;2022-08-19T04:23:41;98191.91;;;26.53;64.68
9740;BME280;4909;42.680;26.324;2022-08-19T04:26:12;98192.56;;;26.55;64.95
9740;BME280;4909;42.680;26.324;2022-08-19T04:28:39;98186.66;;;26.74;64.24
9740;BME280;4909;42.680;26.324;2022-08-19T04:31:13;98188.66;;;26.80;63.40
9740;BME280;4909;42.680;26.324;2022-08-19T04:33:41;98190.00;;;26.84;63.72
9740;BME280;4909;42.680;26.324;2022-08-19T04:36:10;98190.38;;;26.81;63.32
9740;BME280;4909;42.680;26.324;2022-08-19T04:38:41;98196.75;;;26.96;62.82
9740;BME280;4909;42.680;26.324;2022-08-19T04:41:08;98201.88;;;27.14;62.01
9740;BME280;4909;42.680;26.324;2022-08-19T04:43:53;98199.78;;;27.16;60.85
9740;BME280;4909;42.680;26.324;2022-08-19T04:46:22;98187.22;;;27.15;61.19
9740;BME280;4909;42.680;26.324;2022-08-19T04:48:49;98181.34;;;27.03;61.60
9740;BME280;4909;42.680;26.324;2022-08-19T04:51:16;98193.53;;;27.15;61.30
9740;BME280;4909;42.680;26.324;2022-08-19T04:53:43;98196.81;;;27.25;61.73
9740;BME280;4909;42.680;26.324;2022-08-19T04:56:12;98196.31;;;27.07;62.12
9740;BME280;4909;42.680;26.324;2022-08-19T04:58:41;98192.38;;;27.10;62.80
9740;BME280;4909;42.680;26.324;2022-08-19T05:01:08;98197.91;;;27.16;61.84
9740;BME280;4909;42.680;26.324;2022-08-19T05:03:37;98190.47;;;27.33;61.08
9740;BME280;4909;42.680;26.324;2022-08-19T05:06:06;98189.66;;;27.47;59.84
9740;BME280;4909;42.680;26.324;2022-08-19T05:08:34;98201.00;;;27.59;60.37
9740;BME280;4909;42.680;26.324;2022-08-19T05:11:07;98176.72;;;27.49;60.51
9740;BME280;4909;42.680;26.324;2022-08-19T05:13:35;98195.28;;;27.46;60.17
9740;BME280;4909;42.680;26.324;2022-08-19T05:16:02;98201.50;;;27.40;61.02
9740;BME280;4909;42.680;26.324;2022-08-19T05:18:29;98205.31;;;27.45;60.17
9740;BME280;4909;42.680;26.324;2022-08-19T05:21:16;98203.28;;;27.47;59.58
9740;BME280;4909;42.680;26.324;2022-08-19T05:24:16;98203.16;;;27.41;60.36
9740;BME280;4909;42.680;26.324;2022-08-19T05:26:45;98202.75;;;27.52;59.80
9740;BME280;4909;42.680;26.324;2022-08-19T05:29:14;98203.91;;;27.35;57.45
9740;BME280;4909;42.680;26.324;2022-08-19T05:31:42;98201.25;;;27.49;58.62
9740;BME280;4909;42.680;26.324;2022-08-19T05:34:09;98197.75;;;27.55;58.64
9740;BME280;4909;42.680;26.324;2022-08-19T05:36:39;98199.94;;;27.75;58.45
9740;BME280;4909;42.680;26.324;2022-08-19T05:39:07;98198.16;;;27.82;58.59
9740;BME280;4909;42.680;26.324;2022-08-19T05:41:34;98196.28;;;27.97;57.36
9740;BME280;4909;42.680;26.324;2022-08-19T05:44:04;98176.06;;;27.91;54.80
9740;BME280;4909;42.680;26.324;2022-08-19T05:46:35;98195.91;;;27.85;53.74
9740;BME280;4909;42.680;26.324;2022-08-19T05:49:02;98202.22;;;28.00;54.80
9740;BME280;4909;42.680;26.324;2022-08-19T05:51:30;98205.34;;;28.12;54.20
9740;BME280;4909;42.680;26.324;2022-08-19T05:53:59;98170.31;;;28.01;56.01
9740;BME280;4909;42.680;26.324;2022-08-19T05:56:26;98200.34;;;28.30;57.28
9740;BME280;4909;42.680;26.324;2022-08-19T05:58:53;98195.00;;;28.22;58.42
9740;BME280;4909;42.680;26.324;2022-08-19T06:01:20;98196.38;;;28.18;58.13
9740;BME280;4909;42.680;26.324;2022-08-19T06:03:47;98203.44;;;28.27;57.67
9740;BME280;4909;42.680;26.324;2022-08-19T06:06:15;98201.94;;;28.25;55.86
9740;BME280;4909;42.680;26.324;2022-08-19T06:08:42;98198.94;;;28.20;56.41
9740;BME280;4909;42.680;26.324;2022-08-19T06:11:18;98176.81;;;28.29;54.92
9740;BME280;4909;42.680;26.324;2022-08-19T06:13:46;98197.34;;;28.61;54.61
9740;BME280;4909;42.680;26.324;2022-08-19T06:16:16;98178.97;;;28.70;54.22
9740;BME280;4909;42.680;26.324;2022-08-19T06:18:48;98188.81;;;28.85;54.95
9740;BME280;4909;42.680;26.324;2022-08-19T06:21:17;98183.88;;;28.95;53.61
9740;BME280;4909;42.680;26.324;2022-08-19T06:23:44;98194.53;;;29.12;52.68
9740;BME280;4909;42.680;26.324;2022-08-19T06:26:13;98190.88;;;29.26;53.44
9740;BME280;4909;42.680;26.324;2022-08-19T06:28:42;98194.22;;;29.43;52.50
9740;BME280;4909;42.680;26.324;2022-08-19T06:31:13;98200.97;;;29.74;52.43
9740;BME280;4909;42.680;26.324;2022-08-19T06:33:41;98184.47;;;29.89;51.77
9740;BME280;4909;42.680;26.324;2022-08-19T06:36:17;98189.84;;;30.10;50.94
9740;BME280;4909;42.680;26.324;2022-08-19T06:38:43;98192.47;;;30.25;50.66
9740;BME280;4909;42.680;26.324;2022-08-19T06:41:10;98200.56;;;30.05;50.27
9740;BME280;4909;42.680;26.324;2022-08-19T06:43:37;98189.03;;;30.16;50.30
9740;BME280;4909;42.680;26.324;2022-08-19T06:46:11;98175.38;;;30.23;48.26
9740;BME280;4909;42.680;26.324;2022-08-19T06:48:38;98186.25;;;30.51;48.09
9740;BME280;4909;42.680;26.324;2022-08-19T06:51:06;98187.75;;;30.60;46.59
9740;BME280;4909;42.680;26.324;2022-08-19T06:53:33;98148.03;;;30.36;48.01
9740;BME280;4909;42.680;26.324;2022-08-19T06:56:00;98176.63;;;30.75;48.07
9740;BME280;4909;42.680;26.324;2022-08-19T06:58:28;98185.91;;;30.80;46.86
9740;BME280;4909;42.680;26.324;2022-08-19T07:00:59;98186.38;;;30.97;46.53
9740;BME280;4909;42.680;26.324;2022-08-19T07:03:29;98188.69;;;30.87;45.61
9740;BME280;4909;42.680;26.324;2022-08-19T07:05:58;98155.38;;;30.90;47.01
9740;BME280;4909;42.680;26.324;2022-08-19T07:08:28;98177.59;;;31.21;46.74
9740;BME280;4909;42.680;26.324;2022-08-19T07:10:55;98180.50;;;31.13;45.91
9740;BME280;4909;42.680;26.324;2022-08-19T07:13:23;98191.47;;;31.13;44.96
9740;BME280;4909;42.680;26.324;2022-08-19T07:15:50;98192.78;;;31.30;46.56
9740;BME280;4909;42.680;26.324;2022-08-19T07:18:17;98188.97;;;31.31;42.67
9740;BME280;4909;42.680;26.324;2022-08-19T07:20:47;98181.19;;;31.41;43.62
9740;BME280;4909;42.680;26.324;2022-08-19T07:23:14;98187.69;;;31.34;43.61
9740;BME280;4909;42.680;26.324;2022-08-19T07:25:41;98189.97;;;30.97;43.53
9740;BME280;4909;42.680;26.324;2022-08-19T07:28:08;98181.78;;;31.24;44.12
9740;BME280;4909;42.680;26.324;2022-08-19T07:30:38;98183.91;;;31.22;44.42
9740;BME280;4909;42.680;26.324;2022-08-19T07:33:06;98183.91;;;31.22;43.20
9740;BME280;4909;42.680;26.324;2022-08-19T07:35:33;98182.00;;;31.16;44.78
9740;BME280;4909;42.680;26.324;2022-08-19T07:38:01;98189.94;;;30.84;43.04
9740;BME280;4909;42.680;26.324;2022-08-19T07:40:31;98193.19;;;31.08;44.46
9740;BME280;4909;42.680;26.324;2022-08-19T07:42:58;98186.00;;;31.06;44.13
9740;BME280;4909;42.680;26.324;2022-08-19T07:45:25;98192.34;;;31.27;44.21
9740;BME280;4909;42.680;26.324;2022-08-19T07:47:52;98195.72;;;31.48;43.92
9740;BME280;4909;42.680;26.324;2022-08-19T07:50:20;98176.75;;;31.60;42.70
9740;BME280;4909;42.680;26.324;2022-08-19T07:52:48;98145.72;;;31.40;43.57
9740;BME280;4909;42.680;26.324;2022-08-19T07:55:20;98183.91;;;31.68;42.25
9740;BME280;4909;42.680;26.324;2022-08-19T07:57:48;98184.72;;;31.95;41.56
9740;BME280;4909;42.680;26.324;2022-08-19T08:00:15;98156.22;;;31.89;41.92
9740;BME280;4909;42.680;26.324;2022-08-19T08:02:42;98157.44;;;32.06;42.05
9740;BME280;4909;42.680;26.324;2022-08-19T08:05:10;98174.28;;;32.29;41.12
9740;BME280;4909;42.680;26.324;2022-08-19T08:07:54;98172.56;;;32.42;41.15
9740;BME280;4909;42.680;26.324;2022-08-19T08:10:40;98160.53;;;32.29;39.79
9740;BME280;4909;42.680;26.324;2022-08-19T08:13:08;98172.34;;;32.37;40.49
9740;BME280;4909;42.680;26.324;2022-08-19T08:15:35;98168.66;;;32.56;40.22
9740;BME280;4909;42.680;26.324;2022-08-19T08:18:03;98169.91;;;32.60;38.88
9740;BME280;4909;42.680;26.324;2022-08-19T08:20:31;98158.38;;;32.83;39.36
9740;BME280;4909;42.680;26.324;2022-08-19T08:22:58;98173.78;;;33.22;39.18
9740;BME280;4909;42.680;26.324;2022-08-19T08:25:44;98169.19;;;33.65;37.35
9740;BME280;4909;42.680;26.324;2022-08-19T08:28:11;98162.50;;;33.79;36.39
9740;BME280;4909;42.680;26.324;2022-08-19T08:30:38;98164.34;;;34.03;36.78
9740;BME280;4909;42.680;26.324;2022-08-19T08:33:07;98169.06;;;34.21;36.32
9740;BME280;4909;42.680;26.324;2022-08-19T08:35:34;98170.13;;;34.38;36.59
9740;BME280;4909;42.680;26.324;2022-08-19T08:38:02;98168.31;;;34.32;35.82
9740;BME280;4909;42.680;26.324;2022-08-19T08:40:46;98160.47;;;34.11;36.40
9740;BME280;4909;42.680;26.324;2022-08-19T08:43:22;98169.59;;;34.12;36.70
9740;BME280;4909;42.680;26.324;2022-08-19T08:45:54;98165.75;;;34.13;36.00
9740;BME280;4909;42.680;26.324;2022-08-19T08:48:29;98165.19;;;34.04;36.40
9740;BME280;4909;42.680;26.324;2022-08-19T08:51:00;98161.59;;;34.03;36.91
9740;BME280;4909;42.680;26.324;2022-08-19T08:53:28;98158.84;;;33.85;37.07
9740;BME280;4909;42.680;26.324;2022-08-19T08:55:58;98159.00;;;34.09;36.40
9740;BME280;4909;42.680;26.324;2022-08-19T08:58:32;98146.66;;;34.36;36.00
9740;BME280;4909;42.680;26.324;2022-08-19T09:01:09;98156.56;;;34.55;35.75
9740;BME280;4909;42.680;26.324;2022-08-19T09:03:37;98161.97;;;34.62;36.24
9740;BME280;4909;42.680;26.324;2022-08-19T09:06:07;98155.78;;;34.66;34.44
9740;BME280;4909;42.680;26.324;2022-08-19T09:08:45;98161.41;;;34.89;34.35
9740;BME280;4909;42.680;26.324;2022-08-19T09:11:22;98161.84;;;34.86;34.39
9740;BME280;4909;42.680;26.324;2022-08-19T09:14:02;98157.09;;;34.94;34.98
9740;BME280;4909;42.680;26.324;2022-08-19T09:16:34;98156.88;;;34.95;34.46
9740;BME280;4909;42.680;26.324;2022-08-19T09:19:04;98150.50;;;34.65;34.28
9740;BME280;4909;42.680;26.324;2022-08-19T09:21:31;98119.47;;;34.39;34.30
9740;BME280;4909;42.680;26.324;2022-08-19T09:23:58;98153.38;;;34.22;35.36
9740;BME280;4909;42.680;26.324;2022-08-19T09:26:26;98153.06;;;33.93;35.82
9740;BME280;4909;42.680;26.324;2022-08-19T09:28:53;98151.06;;;34.19;35.98
9740;BME280;4909;42.680;26.324;2022-08-19T09:31:22;98152.22;;;34.11;36.32
9740;BME280;4909;42.680;26.324;2022-08-19T09:33:50;98143.69;;;34.49;35.00
9740;BME280;4909;42.680;26.324;2022-08-19T09:36:19;98139.81;;;34.38;34.60
9740;BME280;4909;42.680;26.324;2022-08-19T09:38:47;98151.84;;;34.26;34.57
9740;BME280;4909;42.680;26.324;2022-08-19T09:41:16;98159.78;;;34.16;35.18
9740;BME280;4909;42.680;26.324;2022-08-19T09:43:46;98145.66;;;34.30;34.22
9740;BME280;4909;42.680;26.324;2022-08-19T09:46:17;98141.13;;;34.36;33.42
9740;BME280;4909;42.680;26.324;2022-08-19T09:48:46;98143.13;;;34.29;33.51
9740;BME280;4909;42.680;26.324;2022-08-19T09:51:15;98144.06;;;34.23;34.56
9740;BME280;4909;42.680;26.324;2022-08-19T09:53:44;98151.00;;;34.25;34.47
9740;BME280;4909;42.680;26.324;2022-08-19T09:56:11;98151.22;;;34.24;34.64
9740;BME280;4909;42.680;26.324;2022-08-19T09:58:39;98146.50;;;34.31;34.78
9740;BME280;4909;42.680;26.324;2022-08-19T10:01:08;98150.78;;;34.27;33.96
9740;BME280;4909;42.680;26.324;2022-08-19T10:03:36;98145.28;;;34.27;34.05
9740;BME280;4909;42.680;26.324;2022-08-19T10:06:04;98152.59;;;33.96;33.37
9740;BME280;4909;42.680;26.324;2022-08-19T10:08:34;98151.69;;;34.02;33.81
9740;BME280;4909;42.680;26.324;2022-08-19T10:11:03;98143.31;;;34.09;33.33
9740;BME280;4909;42.680;26.324;2022-08-19T10:13:31;98146.91;;;33.73;32.45
9740;BME280;4909;42.680;26.324;2022-08-19T10:16:04;98136.06;;;33.78;33.86
9740;BME280;4909;42.680;26.324;2022-08-19T10:18:33;98144.19;;;33.91;35.16
9740;BME280;4909;42.680;26.324;2022-08-19T10:21:06;98142.41;;;33.97;34.71
9740;BME280;4909;42.680;26.324;2022-08-19T10:23:36;98149.69;;;33.73;35.29
9740;BME280;4909;42.680;26.324;2022-08-19T10:26:04;98129.19;;;33.44;34.55
9740;BME280;4909;42.680;26.324;2022-08-19T10:28:32;98139.75;;;33.66;34.54
9740;BME280;4909;42.680;26.324;2022-08-19T10:31:04;98138.97;;;33.83;34.73
9740;BME280;4909;42.680;26.324;2022-08-19T10:33:33;98132.47;;;34.14;34.69
9740;BME280;4909;42.680;26.324;2022-08-19T10:36:01;98141.19;;;34.29;34.64
9740;BME280;4909;42.680;26.324;2022-08-19T10:38:28;98131.09;;;34.41;34.13
9740;BME280;4909;42.680;26.324;2022-08-19T10:40:55;98131.25;;;34.46;33.78
9740;BME280;4909;42.680;26.324;2022-08-19T10:43:22;98124.88;;;34.46;33.81
9740;BME280;4909;42.680;26.324;2022-08-19T10:45:53;98139.66;;;33.97;34.65
9740;BME280;4909;42.680;26.324;2022-08-19T10:48:21;98149.44;;;33.75;35.02
9740;BME280;4909;42.680;26.324;2022-08-19T10:50:50;98139.78;;;33.41;35.07
9740;BME280;4909;42.680;26.324;2022-08-19T10:53:34;98139.63;;;33.04;36.38
9740;BME280;4909;42.680;26.324;2022-08-19T10:56:02;98129.03;;;33.08;36.71
9740;BME280;4909;42.680;26.324;2022-08-19T10:58:46;98131.50;;;32.91;36.59
9740;BME280;4909;42.680;26.324;2022-08-19T11:01:14;98133.09;;;33.05;36.63
9740;BME280;4909;42.680;26.324;2022-08-19T11:03:41;98127.59;;;33.05;36.10
9740;BME280;4909;42.680;26.324;2022-08-19T11:06:10;98133.09;;;33.05;36.50
9740;BME280;4909;42.680;26.324;2022-08-19T11:08:37;98132.44;;;33.03;36.24
9740;BME280;4909;42.680;26.324;2022-08-19T11:11:05;98136.72;;;32.99;36.91
9740;BME280;4909;42.680;26.324;2022-08-19T11:13:35;98133.47;;;33.15;37.15
9740;BME280;4909;42.680;26.324;2022-08-19T11:16:05;98131.56;;;33.09;36.78
9740;BME280;4909;42.680;26.324;2022-08-19T11:18:34;98128.13;;;33.14;36.51
9740;BME280;4909;42.680;26.324;2022-08-19T11:21:06;98126.47;;;33.38;36.53
9740;BME280;4909;42.680;26.324;2022-08-19T11:23:34;98126.66;;;33.43;35.40
9740;BME280;4909;42.680;26.324;2022-08-19T11:26:01;98124.16;;;33.59;34.75
9740;BME280;4909;42.680;26.324;2022-08-19T11:28:28;98115.63;;;33.68;34.04
9740;BME280;4909;42.680;26.324;2022-08-19T11:30:55;98113.19;;;33.78;34.84
9740;BME280;4909;42.680;26.324;2022-08-19T11:33:22;98123.38;;;33.95;35.16
9740;BME280;4909;42.680;26.324;2022-08-19T11:35:52;98110.97;;;33.86;35.85
9740;BME280;4909;42.680;26.324;2022-08-19T11:38:19;98100.13;;;33.91;35.43
9740;BME280;4909;42.680;26.324;2022-08-19T11:40:54;98099.44;;;33.96;35.56
9740;BME280;4909;42.680;26.324;2022-08-19T11:43:21;98098.03;;;34.05;35.33
9740;BME280;4909;42.680;26.324;2022-08-19T11:45:47;98108.16;;;33.93;35.19
9740;BME280;4909;42.680;26.324;2022-08-19T11:48:15;98098.75;;;33.82;35.07
9740;BME280;4909;42.680;26.324;2022-08-19T11:50:42;98113.59;;;33.56;35.83
9740;BME280;4909;42.680;26.324;2022-08-19T11:53:09;98105.66;;;33.24;36.19
9740;BME280;4909;42.680;26.324;2022-08-19T11:55:37;98109.09;;;33.19;36.34
9740;BME280;4909;42.680;26.324;2022-08-19T11:58:07;98109.72;;;33.14;34.33
9740;BME280;4909;42.680;26.324;2022-08-19T12:00:34;98103.97;;;33.23;34.62
9740;BME280;4909;42.680;26.324;2022-08-19T12:03:02;98099.88;;;33.32;35.26
9740;BME280;4909;42.680;26.324;2022-08-19T12:05:29;98075.19;;;33.25;35.56
9740;BME280;4909;42.680;26.324;2022-08-19T12:07:56;98091.03;;;33.48;35.50
9740;BME280;4909;42.680;26.324;2022-08-19T12:10:23;98099.75;;;33.45;35.09
9740;BME280;4909;42.680;26.324;2022-08-19T12:12:50;98094.31;;;33.38;35.81
9740;BME280;4909;42.680;26.324;2022-08-19T12:15:19;98089.28;;;33.53;36.56
9740;BME280;4909;42.680;26.324;2022-08-19T12:17:45;98085.81;;;33.65;36.41
9740;BME280;4909;42.680;26.324;2022-08-19T12:20:13;98080.84;;;33.73;36.05
9740;BME280;4909;42.680;26.324;2022-08-19T12:22:42;98083.66;;;33.85;35.19
9740;BME280;4909;42.680;26.324;2022-08-19T12:25:10;98082.53;;;33.74;34.90
9740;BME280;4909;42.680;26.324;2022-08-19T12:27:38;98062.00;;;33.52;36.21
9740;BME280;4909;42.680;26.324;2022-08-19T12:30:08;98083.59;;;33.30;36.11
9740;BME280;4909;42.680;26.324;2022-08-19T12:32:37;98062.34;;;33.12;36.18
9740;BME280;4909;42.680;26.324;2022-08-19T12:35:06;98060.28;;;33.08;36.02
9740;BME280;4909;42.680;26.324;2022-08-19T12:37:34;98081.38;;;33.21;35.50
9740;BME280;4909;42.680;26.324;2022-08-19T12:40:01;98060.69;;;32.87;36.46
9740;BME280;4909;42.680;26.324;2022-08-19T12:42:28;98076.44;;;32.98;36.35
9740;BME280;4909;42.680;26.324;2022-08-19T12:44:55;98089.50;;;33.02;36.82
9740;BME280;4909;42.680;26.324;2022-08-19T12:47:22;98079.31;;;33.09;36.38
9740;BME280;4909;42.680;26.324;2022-08-19T12:49:53;98078.63;;;33.21;36.79
9740;BME280;4909;42.680;26.324;2022-08-19T12:52:23;98082.31;;;33.33;37.34
9740;BME280;4909;42.680;26.324;2022-08-19T12:54:51;98046.16;;;33.29;36.94
9740;BME280;4909;42.680;26.324;2022-08-19T12:57:19;98069.66;;;33.50;36.41
9740;BME280;4909;42.680;26.324;2022-08-19T12:59:46;98073.00;;;33.52;36.54
9740;BME280;4909;42.680;26.324;2022-08-19T13:02:13;98070.56;;;33.44;35.25
9740;BME280;4909;42.680;26.324;2022-08-19T13:04:40;98061.44;;;33.25;35.69
9740;BME280;4909;42.680;26.324;2022-08-19T13:07:08;98066.81;;;33.38;36.25
9740;BME280;4909;42.680;26.324;2022-08-19T13:09:35;98062.91;;;33.46;36.36
9740;BME280;4909;42.680;26.324;2022-08-19T13:12:04;98048.59;;;33.37;36.37
9740;BME280;4909;42.680;26.324;2022-08-19T13:14:33;98066.59;;;33.40;37.23
9740;BME280;4909;42.680;26.324;2022-08-19T13:17:00;98061.97;;;33.34;36.48
9740;BME280;4909;42.680;26.324;2022-08-19T13:19:27;98062.34;;;33.37;37.06